createdAt,value
2019-04-14T00:08:17.754Z,33.20
2019-04-14T00:18:20.822Z,30.63
2019-04-14T00:38:25.991Z,31.15
2019-04-14T00:48:28.021Z,31.68
2019-04-14T00:58:30.113Z,32.85
2019-04-14T01:08:32.090Z,33.38
2019-04-14T01:18:34.141Z,32.55
2019-04-14T01:28:36.146Z,28.55
2019-04-14T01:38:38.516Z,31.35
2019-04-14T01:48:41.052Z,33.40
2019-04-14T01:58:43.205Z,31.10
2019-04-14T02:08:45.886Z,33.33
2019-04-14T02:18:50.647Z,34.03
2019-04-14T02:28:52.833Z,33.95
2019-04-14T02:49:44.069Z,35.30
2019-04-14T02:59:45.155Z,35.95
2019-04-14T03:09:42.221Z,35.52
2019-04-14T03:20:00.463Z,34.98
2019-04-14T03:30:11.685Z,34.90
2019-04-14T03:39:51.228Z,32.50
2019-04-14T03:50:00.948Z,31.55
2019-04-14T03:59:39.128Z,32.78
2019-04-14T04:09:41.323Z,31.17
2019-04-14T04:19:43.342Z,31.07
2019-04-14T04:29:46.277Z,31.60
2019-04-14T04:39:49.529Z,30.12
2019-04-14T04:49:53.414Z,30.55
2019-04-14T04:59:56.148Z,30.77
2019-04-14T05:09:59.920Z,33.40
2019-04-14T05:20:03.228Z,35.78
2019-04-14T05:40:07.989Z,37.67
2019-04-14T05:50:10.196Z,39.35
2019-04-14T06:00:12.529Z,36.98
2019-04-14T06:10:14.459Z,36.97
2019-04-14T06:20:16.475Z,34.23
2019-04-14T06:30:18.443Z,35.80
2019-04-14T06:40:20.381Z,33.08
2019-04-14T06:50:22.338Z,31.77
2019-04-14T07:00:24.423Z,31.23
2019-04-14T07:10:26.431Z,30.52
2019-04-14T07:20:28.386Z,30.23
2019-04-14T07:30:30.342Z,31.85
2019-04-14T07:40:32.323Z,31.42
2019-04-14T07:50:34.434Z,30.35
2019-04-14T08:00:36.499Z,31.45
2019-04-14T08:10:38.486Z,32.08
2019-04-14T08:20:40.529Z,32.48
2019-04-14T08:30:42.570Z,28.62
2019-04-14T08:40:44.426Z,30.70
2019-04-14T08:50:46.391Z,29.12
2019-04-14T09:00:48.450Z,27.07
2019-04-14T09:10:50.543Z,26.00
2019-04-14T09:20:52.914Z,21.82
2019-04-14T09:30:54.963Z,21.27
2019-04-14T09:40:56.918Z,20.35
2019-04-14T09:51:04.580Z,19.23
2019-04-14T10:01:02.710Z,17.90
2019-04-14T10:11:04.659Z,17.32
2019-04-14T10:21:16.744Z,16.40
2019-04-14T10:31:10.448Z,15.38
2019-04-14T10:41:12.415Z,15.28
2019-04-14T10:51:14.399Z,14.87
2019-04-14T11:01:16.355Z,16.12
2019-04-14T11:11:18.391Z,15.93
2019-04-14T11:21:20.352Z,15.57
2019-04-14T11:31:22.394Z,14.13
2019-04-14T11:41:24.516Z,14.47
2019-04-14T11:51:26.802Z,12.87
2019-04-14T12:01:28.935Z,10.80
2019-04-14T12:11:31.722Z,8.93
2019-04-14T12:21:33.679Z,8.98
2019-04-14T12:31:37.378Z,9.38
2019-04-14T12:41:39.968Z,8.55
2019-04-14T12:51:42.032Z,9.33
2019-04-14T13:01:45.238Z,8.93
2019-04-14T13:11:47.237Z,9.75
2019-04-14T13:21:49.216Z,9.95
2019-04-14T13:31:51.357Z,9.73
2019-04-14T13:41:53.305Z,10.40
2019-04-14T13:51:55.265Z,10.68
2019-04-14T14:01:57.382Z,10.90
2019-04-14T14:11:59.450Z,12.45
2019-04-14T14:22:01.367Z,12.18
2019-04-14T14:32:03.819Z,12.93
2019-04-14T14:42:05.747Z,14.98
2019-04-14T15:02:09.315Z,13.53
2019-04-14T15:12:11.356Z,12.65
2019-04-14T15:22:13.346Z,11.93
2019-04-14T15:32:15.347Z,13.75
2019-04-14T15:42:17.347Z,13.45
2019-04-14T15:52:19.387Z,14.63
2019-04-14T16:02:21.399Z,15.40
2019-04-14T16:12:23.619Z,16.70
2019-04-14T16:22:25.669Z,18.00
2019-04-14T16:32:27.803Z,16.67
2019-04-14T16:42:29.768Z,17.60
2019-04-14T16:52:31.765Z,15.73
2019-04-14T17:02:33.692Z,18.83
2019-04-14T17:12:35.688Z,17.52
2019-04-14T17:22:37.649Z,22.93
2019-04-14T17:32:39.688Z,17.07
2019-04-14T17:42:41.659Z,29.05
2019-04-14T17:52:43.686Z,13.50
2019-04-14T18:02:45.641Z,13.22
2019-04-14T18:12:47.692Z,11.93
2019-04-14T18:22:49.679Z,12.50
2019-04-14T18:32:51.690Z,12.85
2019-04-14T18:42:53.668Z,14.05
2019-04-14T18:52:55.631Z,15.13
2019-04-14T19:02:57.571Z,14.05
2019-04-14T19:12:59.627Z,14.18
2019-04-14T19:23:01.590Z,11.95
2019-04-14T19:33:03.868Z,14.63
2019-04-14T19:43:05.924Z,12.80
2019-04-14T19:53:07.922Z,13.68
2019-04-14T20:03:09.922Z,13.48
2019-04-14T20:13:12.044Z,13.85
2019-04-14T20:23:14.095Z,12.57
2019-04-14T20:33:16.274Z,12.17
2019-04-14T20:43:18.332Z,11.40
2019-04-14T20:53:20.310Z,12.58
2019-04-14T21:03:22.299Z,11.75
2019-04-14T21:13:24.429Z,10.63
2019-04-14T21:23:26.396Z,10.60
2019-04-14T21:33:28.445Z,10.13
2019-04-14T21:43:30.395Z,10.00
2019-04-14T21:53:32.359Z,10.03
2019-04-14T22:03:35.010Z,8.68
2019-04-14T22:13:37.130Z,10.32
2019-04-14T22:23:39.346Z,9.65
2019-04-14T22:33:41.333Z,9.50
2019-04-14T22:43:43.308Z,10.03
2019-04-14T22:53:45.403Z,10.03
2019-04-14T23:03:47.864Z,10.23
2019-04-14T23:13:49.885Z,11.20
2019-04-14T23:23:51.847Z,9.63
2019-04-14T23:33:53.900Z,10.38
2019-04-14T23:43:55.879Z,11.20
2019-04-14T23:53:58.043Z,11.08
